Terminal Aerodrome Forecast
Issued by NWS

Home | Current Version | Previous Version | Text Only | Print | Product List | Glossary On
Versions: 1 2 3 4 5 6 7 8 9 10 11 12
999
FTUS44 KLZK 252330
TAFLIT
TAF
KLIT 252330Z 2600/2624 18005KT P6SM SCT100
     FM260130 VRB02KT P6SM BKN250
     FM260630 33007KT P6SM BKN050
     FM260930 35006KT P6SM OVC050
     FM262000 01006KT P6SM SCT050=

USA.gov is the U.S. government's official web portal to all federal, state and local government web resources and services.